Time;durP1;ratioP1;P1;durP2;ratioP2;P2;SDS_P1;SDS_P2;PMS_P1;PMS_P2;Temp;Humidity;BMP_temperature;BMP_pressure;BME280_temperature;BME280_humidity;BME280_pressure;Samples;Min_cycle;Max_cycle;Signal;HPM_P1;HPM_P2
2020/12/05 00:02:19;;;;;;;23.30;16.67;;;5.00;99.90;;;;;;5054215;28;20704;-71
2020/12/05 00:04:46;;;;;;;24.58;17.02;;;4.90;99.90;;;;;;5054392;28;20187;-71
2020/12/05 00:07:13;;;;;;;24.40;18.70;;;4.90;99.90;;;;;;5053993;28;20246;-71
2020/12/05 00:09:40;;;;;;;27.33;17.15;;;4.90;99.90;;;;;;5053733;28;20292;-72
2020/12/05 00:12:10;;;;;;;22.70;15.98;;;4.80;99.90;;;;;;5053913;28;20292;-71
2020/12/05 00:14:36;;;;;;;24.52;16.15;;;4.90;99.90;;;;;;5054156;28;20622;-71
2020/12/05 00:17:03;;;;;;;26.85;18.38;;;4.90;99.90;;;;;;5054076;28;20286;-71
2020/12/05 00:19:31;;;;;;;24.05;18.00;;;4.90;99.90;;;;;;5053613;28;20566;-70
2020/12/05 00:21:58;;;;;;;23.00;16.42;;;4.90;99.90;;;;;;5053827;28;20228;-71
2020/12/05 00:24:26;;;;;;;24.38;17.02;;;4.90;99.90;;;;;;5054019;28;20670;-72
2020/12/05 00:26:54;;;;;;;27.77;17.20;;;4.80;99.90;;;;;;5054157;28;20226;-70
2020/12/05 00:29:22;;;;;;;24.77;16.45;;;4.80;99.90;;;;;;5053479;28;20680;-71
2020/12/05 00:31:50;;;;;;;23.95;16.67;;;4.80;99.90;;;;;;5053747;28;20231;-70
2020/12/05 00:34:17;;;;;;;20.40;15.63;;;4.70;99.90;;;;;;5052624;28;20247;-71
2020/12/05 00:36:43;;;;;;;23.75;18.23;;;4.70;99.90;;;;;;5052218;28;20184;-70
2020/12/05 00:39:11;;;;;;;26.90;18.95;;;4.60;99.90;;;;;;5051142;28;20212;-71
2020/12/05 00:41:38;;;;;;;23.88;16.17;;;4.60;99.90;;;;;;5054834;28;20224;-71
2020/12/05 00:44:04;;;;;;;24.45;18.80;;;4.60;99.90;;;;;;5053135;28;20198;-71
2020/12/05 00:46:32;;;;;;;26.27;17.90;;;4.50;99.90;;;;;;5053688;28;20295;-71
2020/12/05 00:48:59;;;;;;;24.00;17.35;;;4.50;99.90;;;;;;5052528;28;20234;-71
2020/12/05 00:51:26;;;;;;;22.90;17.23;;;4.60;99.90;;;;;;5052867;28;20199;-71
2020/12/05 00:53:53;;;;;;;27.50;19.23;;;4.60;99.90;;;;;;5053602;28;20222;-71
2020/12/05 00:56:21;;;;;;;26.98;20.23;;;4.50;99.90;;;;;;5053625;28;20210;-71
2020/12/05 00:58:47;;;;;;;35.00;23.70;;;4.50;99.90;;;;;;5052739;28;20661;-71
2020/12/05 01:01:15;;;;;;;27.98;17.75;;;4.40;99.90;;;;;;5053164;28;20606;-71
2020/12/05 01:03:43;;;;;;;23.35;18.63;;;4.40;99.90;;;;;;5053787;28;20222;-71
2020/12/05 01:06:13;;;;;;;28.60;18.02;;;4.30;99.90;;;;;;5053260;28;20636;-71
2020/12/05 01:08:40;;;;;;;25.15;17.88;;;4.20;99.90;;;;;;5052299;28;20196;-71
2020/12/05 01:11:12;;;;;;;26.45;18.73;;;4.20;99.90;;;;;;5053206;28;20261;-70
2020/12/05 01:13:39;;;;;;;24.55;19.13;;;4.30;99.90;;;;;;5053028;28;20253;-71
2020/12/05 01:16:06;;;;;;;30.10;19.15;;;4.20;99.90;;;;;;5053373;28;20245;-71
2020/12/05 01:18:32;;;;;;;25.30;19.00;;;4.10;99.90;;;;;;5052562;28;20215;-71
2020/12/05 01:20:59;;;;;;;23.30;18.00;;;4.20;99.90;;;;;;5053110;28;20708;-72
2020/12/05 01:23:26;;;;;;;24.95;18.85;;;4.20;99.90;;;;;;5052347;28;20234;-72
2020/12/05 01:25:53;;;;;;;26.27;19.05;;;4.20;99.90;;;;;;5052520;28;20277;-71
2020/12/05 01:28:19;;;;;;;24.88;18.55;;;4.10;99.90;;;;;;5052811;28;20200;-71
2020/12/05 01:30:46;;;;;;;27.15;20.23;;;4.10;99.90;;;;;;5052187;28;20207;-71
2020/12/05 01:33:12;;;;;;;25.13;17.77;;;4.10;99.90;;;;;;5052602;28;20269;-70
2020/12/05 01:35:39;;;;;;;24.60;19.33;;;4.00;99.90;;;;;;5052327;28;20184;-71
2020/12/05 01:38:06;;;;;;;25.40;17.63;;;4.10;99.90;;;;;;5051747;28;20214;-72
2020/12/05 01:40:33;;;;;;;23.05;17.23;;;4.10;99.90;;;;;;5048737;28;20211;-72
2020/12/05 01:42:59;;;;;;;23.40;17.65;;;4.20;99.90;;;;;;5052455;28;20705;-70
2020/12/05 01:45:27;;;;;;;25.42;19.13;;;4.20;99.90;;;;;;5032692;28;20226;-71
2020/12/05 01:47:54;;;;;;;23.50;17.95;;;4.20;99.90;;;;;;5033240;28;20215;-71
2020/12/05 01:50:21;;;;;;;26.38;18.60;;;4.20;99.90;;;;;;5032375;28;20250;-71
2020/12/05 01:52:48;;;;;;;27.75;18.70;;;4.20;99.90;;;;;;5032324;28;20242;-72
2020/12/05 01:55:18;;;;;;;25.83;19.17;;;4.20;99.90;;;;;;5032705;28;20642;-71
2020/12/05 01:57:45;;;;;;;26.25;18.98;;;4.20;99.90;;;;;;5032514;28;20294;-70
2020/12/05 02:00:11;;;;;;;28.05;18.98;;;4.30;99.90;;;;;;5033033;28;20208;-71
2020/12/05 02:02:52;;;;;;;27.67;20.20;;;4.30;99.90;;;;;;5063888;22;20223;-85
2020/12/05 02:05:35;;;;;;;28.05;18.95;;;4.40;99.90;;;;;;5092114;28;20557;-83
2020/12/05 02:08:27;;;;;;;30.05;20.83;;;4.20;99.90;;;;;;5095186;28;20206;-87
2020/12/05 02:10:55;;;;;;;25.55;19.40;;;4.30;99.90;;;;;;5107513;28;20218;-83
2020/12/05 02:13:28;;;;;;;29.25;19.17;;;4.30;99.90;;;;;;5115405;28;20286;-85
2020/12/05 02:15:56;;;;;;;25.98;17.45;;;4.40;99.90;;;;;;5115944;28;20210;-85
2020/12/05 02:18:25;;;;;;;24.25;18.70;;;4.30;99.90;;;;;;5116359;28;20206;-85
2020/12/05 02:20:58;;;;;;;26.65;17.98;;;4.30;99.90;;;;;;5116118;28;20215;-85
2020/12/05 02:23:27;;;;;;;28.58;21.75;;;4.30;99.90;;;;;;5116710;28;20237;-84
2020/12/05 02:25:59;;;;;;;26.00;20.08;;;4.20;99.90;;;;;;5116925;28;20230;-84
2020/12/05 02:28:34;;;;;;;28.45;21.75;;;4.10;99.90;;;;;;5117279;28;20240;-85
2020/12/05 02:31:01;;;;;;;25.45;18.65;;;4.20;99.90;;;;;;5117481;28;20213;-85
2020/12/05 02:33:41;;;;;;;33.33;22.45;;;4.10;99.90;;;;;;5116612;28;20213;-86
2020/12/05 02:36:19;;;;;;;32.85;21.90;;;4.10;99.90;;;;;;5115899;28;20262;-85
2020/12/05 02:39:07;;;;;;;24.88;18.65;;;4.10;99.90;;;;;;5074720;28;20446;-86
2020/12/05 02:41:37;;;;;;;28.50;20.73;;;4.10;99.90;;;;;;5094625;28;20215;-85
2020/12/05 02:44:06;;;;;;;31.23;22.25;;;4.10;99.90;;;;;;5094721;28;20191;-85
2020/12/05 02:46:38;;;;;;;27.58;19.70;;;4.10;99.90;;;;;;5086870;28;20250;-86
2020/12/05 02:49:08;;;;;;;28.20;20.55;;;4.00;99.90;;;;;;5087214;28;20684;-85
2020/12/05 02:51:35;;;;;;;28.70;20.02;;;3.80;99.90;;;;;;5068647;28;20308;-87
2020/12/05 02:54:31;;;;;;;30.00;22.90;;;4.00;99.90;;;;;;5086612;28;20221;-86
2020/12/05 02:57:04;;;;;;;30.45;22.48;;;3.90;99.90;;;;;;5085209;28;20195;-86
2020/12/05 02:59:34;;;;;;;30.83;23.35;;;3.90;99.90;;;;;;5086413;28;20659;-86
2020/12/05 03:02:01;;;;;;;30.13;20.75;;;3.90;99.90;;;;;;5086388;28;20225;-86
2020/12/05 03:04:42;;;;;;;28.88;20.95;;;3.90;99.90;;;;;;5087866;28;20210;-85
2020/12/05 03:07:17;;;;;;;29.33;20.55;;;3.90;99.90;;;;;;5088940;28;20223;-84
2020/12/05 03:09:48;;;;;;;34.30;22.42;;;3.90;99.90;;;;;;5088901;28;20214;-86
2020/12/05 03:12:21;;;;;;;32.30;22.13;;;3.90;99.90;;;;;;5089141;28;20295;-85
2020/12/05 03:14:48;;;;;;;27.05;21.00;;;3.90;99.90;;;;;;5088227;28;20592;-86
2020/12/05 03:17:17;;;;;;;30.85;22.67;;;3.90;99.90;;;;;;5087839;28;20222;-86
2020/12/05 03:22:48;;;;;;;31.55;23.40;;;3.90;99.90;;;;;;5088624;28;20230;-86
2020/12/05 03:25:25;;;;;;;33.78;23.30;;;3.90;99.90;;;;;;5085775;28;20282;-86
2020/12/05 03:28:00;;;;;;;35.40;24.98;;;3.80;99.90;;;;;;5085662;28;20592;-86
2020/12/05 03:30:47;;;;;;;32.70;22.38;;;3.80;99.90;;;;;;5076574;28;20603;-86
2020/12/05 03:33:22;;;;;;;35.97;24.75;;;3.80;99.90;;;;;;5088360;28;20222;-86
2020/12/05 03:35:55;;;;;;;30.02;23.23;;;3.80;99.90;;;;;;5089951;28;20190;-85
2020/12/05 03:38:35;;;;;;;28.42;22.30;;;3.80;99.90;;;;;;5094217;28;20294;-84
2020/12/05 03:41:05;;;;;;;29.85;21.85;;;3.80;99.90;;;;;;5090814;28;20205;-86
2020/12/05 03:43:39;;;;;;;28.10;23.27;;;3.80;99.90;;;;;;5093525;28;20233;-85
2020/12/05 03:46:06;;;;;;;34.03;25.35;;;3.90;99.90;;;;;;5091886;28;20246;-85
2020/12/05 03:48:34;;;;;;;33.22;23.70;;;3.80;99.90;;;;;;5085637;28;20197;-87
2020/12/05 03:51:01;;;;;;;30.05;23.92;;;3.90;99.90;;;;;;5085623;28;20269;-87
2020/12/05 03:53:30;;;;;;;34.25;24.25;;;3.80;99.90;;;;;;5085003;28;20566;-86
2020/12/05 03:55:56;;;;;;;35.75;24.63;;;3.90;99.90;;;;;;5084841;28;20205;-85
2020/12/05 03:58:25;;;;;;;30.77;24.50;;;3.90;99.90;;;;;;5083258;28;20587;-86
2020/12/05 04:00:55;;;;;;;36.13;25.00;;;3.90;99.90;;;;;;5082939;28;20438;-87
2020/12/05 04:03:25;;;;;;;32.15;24.35;;;4.00;99.90;;;;;;5083410;28;20233;-85
2020/12/05 04:05:51;;;;;;;29.85;23.90;;;3.90;99.90;;;;;;5063526;28;20229;-86
2020/12/05 04:08:24;;;;;;;35.63;24.33;;;4.00;99.90;;;;;;5063041;28;20233;-85
2020/12/05 04:10:51;;;;;;;32.97;25.85;;;4.00;99.90;;;;;;5063092;28;20211;-86
2020/12/05 04:13:22;;;;;;;40.50;26.17;;;3.90;99.90;;;;;;5062419;28;20471;-86
2020/12/05 04:15:50;;;;;;;30.40;23.88;;;3.90;99.90;;;;;;5061990;28;20207;-87
2020/12/05 04:18:35;;;;;;;40.38;25.80;;;4.00;99.90;;;;;;5061336;28;20190;-85
2020/12/05 04:21:06;;;;;;;33.30;23.67;;;3.90;99.90;;;;;;5062515;28;20639;-86
2020/12/05 04:23:42;;;;;;;32.50;26.05;;;4.00;99.90;;;;;;5060142;28;20587;-86
2020/12/05 04:26:10;;;;;;;39.47;27.58;;;4.00;99.90;;;;;;5061759;28;20222;-84
2020/12/05 04:28:39;;;;;;;31.73;24.05;;;3.90;99.90;;;;;;5062773;28;20187;-86
2020/12/05 04:31:10;;;;;;;33.95;24.75;;;3.90;99.90;;;;;;5063160;28;20214;-86
2020/12/05 04:33:40;;;;;;;37.90;26.40;;;4.00;99.90;;;;;;5063317;28;20648;-85
2020/12/05 04:36:08;;;;;;;34.15;25.13;;;3.90;99.90;;;;;;5068547;28;20215;-83
2020/12/05 04:38:51;;;;;;;39.17;25.83;;;3.80;99.90;;;;;;5060982;28;20623;-85
2020/12/05 04:41:46;;;;;;;34.97;26.20;;;3.80;99.90;;;;;;5066012;28;20224;-86
2020/12/05 04:47:00;;;;;;;35.90;27.33;;;3.70;99.90;;;;;;5064903;28;20231;-85
2020/12/05 04:49:29;;;;;;;35.67;26.10;;;3.70;99.90;;;;;;5064818;28;20195;-84
2020/12/05 04:52:14;;;;;;;36.63;28.30;;;3.70;99.90;;;;;;5066687;28;20290;-85
2020/12/05 04:54:43;;;;;;;37.70;28.02;;;3.70;99.90;;;;;;5075212;28;20200;-86
2020/12/05 04:57:17;;;;;;;36.63;27.38;;;3.70;99.90;;;;;;5074936;28;20276;-84
2020/12/05 04:59:44;;;;;;;40.63;28.83;;;3.80;99.90;;;;;;5064253;28;20750;-85
2020/12/05 05:02:12;;;;;;;39.38;27.80;;;3.70;99.90;;;;;;5065124;28;20219;-86
2020/12/05 05:04:39;;;;;;;36.65;28.02;;;3.70;99.90;;;;;;5073235;28;20287;-84
2020/12/05 05:07:06;;;;;;;40.65;29.77;;;3.60;99.90;;;;;;5074319;28;20232;-85
2020/12/05 05:09:34;;;;;;;40.90;29.10;;;3.60;99.90;;;;;;5067843;28;20220;-85
2020/12/05 05:12:03;;;;;;;37.22;27.17;;;3.60;99.90;;;;;;5070654;28;20246;-85
2020/12/05 05:14:33;;;;;;;39.17;26.85;;;3.70;99.90;;;;;;5070972;28;20214;-83
2020/12/05 05:17:06;;;;;;;34.58;26.23;;;3.70;99.90;;;;;;5069577;28;20209;-85
2020/12/05 05:19:39;;;;;;;34.50;25.67;;;3.70;99.90;;;;;;5069857;28;20234;-87
2020/12/05 05:22:06;;;;;;;40.55;29.83;;;3.70;99.90;;;;;;5069418;28;20706;-85
2020/12/05 05:24:33;;;;;;;38.17;28.13;;;3.70;99.90;;;;;;5070390;28;20226;-85
2020/12/05 05:27:02;;;;;;;43.40;30.23;;;3.70;99.90;;;;;;5071984;28;20251;-84
2020/12/05 05:29:31;;;;;;;35.75;27.05;;;3.70;99.90;;;;;;5072244;28;20212;-85
2020/12/05 05:32:03;;;;;;;35.97;28.38;;;3.70;99.90;;;;;;5071035;28;20230;-85
2020/12/05 05:34:30;;;;;;;35.33;27.33;;;3.80;99.90;;;;;;5052349;28;20218;-86
2020/12/05 05:36:58;;;;;;;39.85;29.42;;;3.80;99.90;;;;;;5054483;28;20204;-85
2020/12/05 05:39:25;;;;;;;43.70;33.55;;;3.90;99.90;;;;;;5053174;28;20208;-85
2020/12/05 05:41:53;;;;;;;42.47;31.40;;;3.80;99.90;;;;;;5052715;28;20328;-85
2020/12/05 05:44:24;;;;;;;40.60;30.77;;;3.70;99.90;;;;;;5056364;28;20221;-84
2020/12/05 05:46:55;;;;;;;44.78;31.48;;;3.70;99.90;;;;;;5056391;28;20214;-84
2020/12/05 05:49:30;;;;;;;42.83;31.67;;;3.60;99.90;;;;;;5055986;28;20232;-85
2020/12/05 05:51:59;;;;;;;43.75;30.73;;;3.60;99.90;;;;;;5055515;28;20234;-84
2020/12/05 05:54:28;;;;;;;46.15;32.53;;;3.60;99.90;;;;;;5056973;28;20234;-84
2020/12/05 05:56:56;;;;;;;49.80;34.72;;;3.60;99.90;;;;;;5056801;28;20204;-85
2020/12/05 05:59:24;;;;;;;44.42;31.45;;;3.60;99.90;;;;;;5059469;28;20270;-84
2020/12/05 06:01:52;;;;;;;48.05;34.00;;;3.60;99.90;;;;;;5075984;28;20214;-86
2020/12/05 06:04:25;;;;;;;45.78;35.42;;;3.60;99.90;;;;;;5076195;28;20211;-85
2020/12/05 06:06:52;;;;;;;50.50;35.50;;;3.60;99.90;;;;;;5076636;28;20214;-85
2020/12/05 06:09:34;;;;;;;49.08;35.13;;;3.60;99.90;;;;;;5076069;28;20194;-84
2020/12/05 06:12:04;;;;;;;46.80;38.22;;;3.60;99.90;;;;;;5075190;28;20428;-83
2020/12/05 06:14:31;;;;;;;43.97;32.72;;;3.70;99.90;;;;;;5076390;28;20198;-84
2020/12/05 06:16:59;;;;;;;51.20;35.28;;;3.70;99.90;;;;;;5071203;28;20210;-85
2020/12/05 06:19:27;;;;;;;53.92;37.85;;;3.70;99.90;;;;;;5063715;28;20210;-84
2020/12/05 06:21:55;;;;;;;51.33;34.83;;;3.60;99.90;;;;;;5062500;28;20284;-85
2020/12/05 06:24:35;;;;;;;55.70;35.90;;;3.60;99.90;;;;;;5061097;28;20194;-87
2020/12/05 06:27:03;;;;;;;49.53;35.75;;;3.50;99.90;;;;;;5063497;28;20243;-84
2020/12/05 06:29:33;;;;;;;43.15;31.98;;;3.50;99.90;;;;;;5071956;28;20210;-84
2020/12/05 06:32:31;;;;;;;48.85;34.00;;;3.60;99.90;;;;;;5071934;28;20274;-86
2020/12/05 06:34:58;;;;;;;41.45;31.45;;;3.60;99.90;;;;;;5051708;22;20717;-71
2020/12/05 06:37:33;;;;;;;41.05;31.10;;;3.60;99.90;;;;;;5012604;28;20567;-70
2020/12/05 06:40:04;;;;;;;48.58;33.70;;;3.60;99.90;;;;;;5012267;28;20199;-70
2020/12/05 06:42:38;;;;;;;42.55;31.02;;;3.60;99.90;;;;;;5012427;28;20238;-73
2020/12/05 06:45:06;;;;;;;41.08;31.65;;;3.60;99.90;;;;;;5012531;28;20217;-71
2020/12/05 06:47:32;;;;;;;41.42;31.00;;;3.60;99.90;;;;;;5013861;28;20234;-69
2020/12/05 06:49:59;;;;;;;43.03;36.00;;;3.60;99.90;;;;;;5014442;28;20493;-71
2020/12/05 06:52:41;;;;;;;48.63;35.35;;;3.60;99.90;;;;;;5016470;28;20322;-73
2020/12/05 06:55:31;;;;;;;40.55;29.35;;;3.60;99.90;;;;;;5016511;28;20219;-71
2020/12/05 06:58:03;;;;;;;45.97;32.83;;;3.60;99.90;;;;;;5016169;28;20254;-70
2020/12/05 07:00:35;;;;;;;42.78;33.20;;;3.50;99.90;;;;;;5015145;28;20204;-70
2020/12/05 07:03:03;;;;;;;47.33;31.25;;;3.60;99.90;;;;;;5016068;28;20609;-70
2020/12/05 07:05:35;;;;;;;46.65;34.08;;;3.50;99.90;;;;;;5016153;28;20212;-70
2020/12/05 07:08:19;;;;;;;49.28;35.88;;;3.60;99.90;;;;;;5015889;28;20281;-70
2020/12/05 07:10:50;;;;;;;49.97;35.88;;;3.40;99.90;;;;;;5015260;28;20575;-70
2020/12/05 07:13:18;;;;;;;48.58;34.83;;;3.40;99.90;;;;;;5015663;28;20231;-70
2020/12/05 07:15:45;;;;;;;52.80;36.42;;;3.30;99.90;;;;;;5015694;28;20667;-70
2020/12/05 07:18:24;;;;;;;60.95;39.17;;;3.30;99.90;;;;;;5015757;28;20205;-70
2020/12/05 07:20:51;;;;;;;58.97;37.45;;;3.30;99.90;;;;;;5016062;28;20189;-70
2020/12/05 07:23:17;;;;;;;62.28;39.15;;;3.20;99.90;;;;;;5015456;28;20233;-70
2020/12/05 07:25:44;;;;;;;50.25;36.72;;;3.10;99.90;;;;;;5015543;28;20232;-70
2020/12/05 07:28:11;;;;;;;59.78;39.75;;;3.10;99.90;;;;;;5014956;28;20612;-70
2020/12/05 07:30:38;;;;;;;59.47;39.28;;;3.10;99.90;;;;;;5015046;28;20296;-70
2020/12/05 07:33:07;;;;;;;54.40;38.90;;;3.00;99.90;;;;;;5015437;28;20283;-70
2020/12/05 07:35:36;;;;;;;47.88;32.45;;;3.10;99.90;;;;;;5015238;28;20300;-69
2020/12/05 07:38:11;;;;;;;52.22;37.17;;;3.30;99.90;;;;;;5014944;28;20288;-70
2020/12/05 07:40:38;;;;;;;49.53;36.03;;;3.50;99.90;;;;;;5014547;28;20208;-70
2020/12/05 07:43:14;;;;;;;46.08;34.97;;;3.70;99.90;;;;;;5011847;28;20217;-70
2020/12/05 07:45:41;;;;;;;41.97;33.38;;;3.80;99.90;;;;;;5015151;28;20204;-70
2020/12/05 07:48:11;;;;;;;47.70;33.50;;;3.70;99.90;;;;;;5014729;28;20208;-69
2020/12/05 07:50:38;;;;;;;37.83;32.10;;;3.80;99.90;;;;;;5014066;28;20209;-69
2020/12/05 07:53:04;;;;;;;42.88;32.85;;;4.00;99.90;;;;;;5014671;28;20232;-71
2020/12/05 07:55:31;;;;;;;41.80;31.63;;;3.90;99.90;;;;;;5014905;28;20255;-71
2020/12/05 07:57:58;;;;;;;37.97;29.25;;;4.10;99.90;;;;;;5014413;28;20244;-69
2020/12/05 08:00:25;;;;;;;37.17;27.95;;;4.30;99.90;;;;;;5014054;28;20212;-69
2020/12/05 08:03:15;;;;;;;40.90;30.58;;;4.40;99.90;;;;;;5030561;22;20278;-88
2020/12/05 08:05:57;;;;;;;33.38;24.02;;;4.70;99.90;;;;;;5048894;28;20205;-87
2020/12/05 08:08:29;;;;;;;45.17;30.35;;;5.00;99.90;;;;;;5049323;28;20238;-86
2020/12/05 08:11:01;;;;;;;39.58;30.58;;;5.10;99.90;;;;;;5044216;28;20263;-86
2020/12/05 08:13:30;;;;;;;32.83;26.73;;;4.90;99.90;;;;;;5023816;28;20229;-87
2020/12/05 08:16:08;;;;;;;42.28;28.73;;;4.90;99.90;;;;;;5022830;28;20541;-86
2020/12/05 08:18:37;;;;;;;44.25;31.73;;;4.80;99.90;;;;;;5024312;28;20496;-87
2020/12/05 08:21:07;;;;;;;37.65;28.85;;;4.80;99.90;;;;;;5022245;28;20670;-87
2020/12/05 08:23:37;;;;;;;37.38;30.63;;;5.00;99.90;;;;;;5022559;28;20243;-87
2020/12/05 08:26:09;;;;;;;40.25;30.75;;;5.10;99.90;;;;;;5021718;28;20209;-87
2020/12/05 08:28:39;;;;;;;39.60;28.80;;;5.10;99.90;;;;;;5023549;28;20197;-87
2020/12/05 08:31:10;;;;;;;37.47;28.92;;;5.00;99.90;;;;;;5023200;28;20208;-86
2020/12/05 08:33:49;;;;;;;42.40;29.58;;;5.00;99.90;;;;;;5022543;28;20613;-86
2020/12/05 08:36:24;;;;;;;45.08;33.53;;;4.90;99.90;;;;;;5023539;28;20675;-86
2020/12/05 08:38:53;;;;;;;45.67;33.38;;;4.70;99.90;;;;;;5025603;28;20285;-86
2020/12/05 08:41:20;;;;;;;39.17;29.02;;;4.50;99.90;;;;;;5026365;28;20232;-87
2020/12/05 08:43:49;;;;;;;50.17;40.90;;;4.30;99.90;;;;;;5024218;28;20959;-86
2020/12/05 08:46:18;;;;;;;47.22;33.80;;;4.10;99.90;;;;;;5031324;28;20243;-87
2020/12/05 08:49:10;;;;;;;54.92;37.80;;;4.00;99.90;;;;;;5029143;28;20204;-87
2020/12/05 08:51:54;;;;;;;49.35;33.75;;;3.80;99.90;;;;;;5026790;28;20187;-85
2020/12/05 08:54:24;;;;;;;49.05;35.13;;;3.70;99.90;;;;;;5032232;28;20226;-85
2020/12/05 08:57:09;;;;;;;60.65;41.55;;;3.70;99.90;;;;;;5031326;28;20241;-85
2020/12/05 08:59:46;;;;;;;61.90;38.80;;;3.50;99.90;;;;;;5031729;28;20285;-84
2020/12/05 09:02:17;;;;;;;60.25;38.40;;;3.40;99.90;;;;;;5026265;28;20238;-85
2020/12/05 09:04:45;;;;;;;54.42;37.72;;;3.40;99.90;;;;;;5026707;28;20271;-86
2020/12/05 09:07:15;;;;;;;52.55;36.20;;;3.40;99.90;;;;;;5022579;28;20308;-87
2020/12/05 09:09:44;;;;;;;57.78;39.15;;;3.40;99.90;;;;;;5024384;28;20243;-87
2020/12/05 09:12:14;;;;;;;55.70;38.65;;;3.50;99.90;;;;;;5030605;28;20295;-85
2020/12/05 09:14:45;;;;;;;44.15;31.98;;;3.50;99.90;;;;;;5027409;28;20210;-84
2020/12/05 09:17:22;;;;;;;48.05;34.78;;;3.60;99.90;;;;;;5024554;28;20207;-83
2020/12/05 09:19:52;;;;;;;48.53;35.30;;;3.60;99.90;;;;;;5024920;28;20208;-84
2020/12/05 09:23:02;;;;;;;54.25;34.65;;;3.80;99.90;;;;;;5026183;28;20236;-86
2020/12/05 12:04:32;;;;;;;28.27;21.95;;;7.70;99.90;;;;;;5128255;22;20207;-84
2020/12/05 12:06:59;;;;;;;27.58;22.75;;;7.60;99.90;;;;;;5053863;28;20234;-85
2020/12/05 12:09:28;;;;;;;29.83;24.50;;;7.70;99.90;;;;;;5056291;28;20266;-84
2020/12/05 12:11:56;;;;;;;31.85;23.77;;;7.80;99.90;;;;;;5056969;28;20211;-84
2020/12/05 12:14:23;;;;;;;31.67;24.48;;;7.90;99.90;;;;;;5056853;28;20218;-84
2020/12/05 12:16:53;;;;;;;27.40;22.48;;;7.90;99.90;;;;;;5055022;28;20229;-84
2020/12/05 12:19:23;;;;;;;30.17;22.60;;;8.00;99.90;;;;;;5053214;28;20210;-84
2020/12/05 12:21:52;;;;;;;28.08;22.77;;;8.10;99.90;;;;;;5053470;28;20215;-84
2020/12/05 12:24:19;;;;;;;27.58;22.90;;;8.00;99.90;;;;;;5034535;28;20199;-84
2020/12/05 12:26:48;;;;;;;36.42;26.20;;;8.20;99.90;;;;;;5049666;28;20270;-84
2020/12/05 12:29:15;;;;;;;29.38;24.70;;;8.30;99.90;;;;;;5050928;28;20207;-85
2020/12/05 12:31:42;;;;;;;28.70;24.55;;;8.40;99.90;;;;;;5058782;28;20211;-84
2020/12/05 12:34:08;;;;;;;31.40;26.17;;;8.30;99.90;;;;;;5064881;28;20210;-84
2020/12/05 12:36:36;;;;;;;33.42;25.25;;;8.30;99.90;;;;;;5063690;28;20206;-84
2020/12/05 12:39:04;;;;;;;29.63;26.25;;;8.30;99.90;;;;;;5063535;28;20226;-86
2020/12/05 12:41:30;;;;;;;32.33;26.58;;;8.40;99.90;;;;;;5062630;28;20242;-84
2020/12/05 12:43:57;;;;;;;29.25;23.40;;;8.30;99.90;;;;;;5063488;28;20233;-85
2020/12/05 12:46:25;;;;;;;35.92;27.30;;;8.30;99.90;;;;;;5061532;28;20230;-83
2020/12/05 12:48:51;;;;;;;34.45;29.48;;;8.30;99.90;;;;;;5062563;28;20228;-83
2020/12/05 12:51:22;;;;;;;33.13;28.88;;;8.20;99.90;;;;;;5062345;28;20210;-84
2020/12/05 12:53:49;;;;;;;43.53;33.30;;;8.10;99.90;;;;;;5067193;28;20640;-85
2020/12/05 12:56:20;;;;;;;38.42;33.45;;;8.10;99.90;;;;;;5071283;28;20209;-85
2020/12/05 12:58:47;;;;;;;43.30;32.25;;;7.90;99.90;;;;;;5075241;28;20237;-84
2020/12/05 13:01:15;;;;;;;42.47;33.40;;;7.90;99.90;;;;;;5068914;28;20195;-84
2020/12/05 13:03:42;;;;;;;48.50;34.55;;;7.90;99.90;;;;;;5061485;28;20258;-84
2020/12/05 13:06:14;;;;;;;39.47;32.00;;;7.80;99.90;;;;;;5048099;28;20630;-83
2020/12/05 13:08:41;;;;;;;41.70;34.42;;;7.80;99.90;;;;;;5043846;28;20559;-83
2020/12/05 13:11:07;;;;;;;41.80;32.42;;;7.80;99.90;;;;;;5043379;28;20210;-83
2020/12/05 13:13:35;;;;;;;40.67;34.15;;;7.90;99.90;;;;;;5042245;28;20292;-84
2020/12/05 13:16:01;;;;;;;47.53;35.30;;;7.90;99.90;;;;;;5044724;28;20207;-83
2020/12/05 13:18:28;;;;;;;43.35;34.70;;;7.80;99.90;;;;;;5043708;28;20230;-83
2020/12/05 13:20:54;;;;;;;40.08;33.90;;;7.70;99.90;;;;;;5043044;28;20219;-83
2020/12/05 13:23:21;;;;;;;40.60;33.75;;;7.70;99.90;;;;;;5043704;28;20235;-83
2020/12/05 13:25:48;;;;;;;42.50;35.20;;;7.80;99.90;;;;;;5044068;28;20226;-84
2020/12/05 13:28:14;;;;;;;47.80;35.97;;;7.90;99.90;;;;;;5043991;28;20207;-83
2020/12/05 13:30:42;;;;;;;43.45;35.58;;;7.80;99.90;;;;;;5048702;28;20205;-85
2020/12/05 13:33:08;;;;;;;45.97;34.05;;;7.80;99.90;;;;;;5047573;28;20280;-85
2020/12/05 13:35:35;;;;;;;40.13;33.58;;;7.80;99.90;;;;;;5042472;28;20199;-84
2020/12/05 13:38:01;;;;;;;42.08;33.63;;;7.80;99.90;;;;;;5045175;28;20228;-84
2020/12/05 13:40:28;;;;;;;40.53;33.08;;;7.90;99.90;;;;;;5043151;28;20203;-85
2020/12/05 13:42:55;;;;;;;39.58;33.75;;;7.90;99.90;;;;;;5043648;28;20222;-84
2020/12/05 13:45:21;;;;;;;35.75;30.98;;;7.90;99.90;;;;;;5043260;28;20230;-84
2020/12/05 13:47:49;;;;;;;38.53;32.75;;;8.00;99.90;;;;;;5047680;28;20298;-85
2020/12/05 13:50:15;;;;;;;38.90;30.80;;;7.90;99.90;;;;;;5053732;28;20249;-84
2020/12/05 13:52:42;;;;;;;39.63;31.85;;;7.80;99.90;;;;;;5056335;28;20211;-83
2020/12/05 13:55:08;;;;;;;35.80;30.17;;;8.00;99.90;;;;;;5056086;28;20183;-85
2020/12/05 13:57:35;;;;;;;33.00;29.45;;;8.00;99.90;;;;;;5055268;28;20231;-85
2020/12/05 14:00:01;;;;;;;38.50;31.65;;;8.10;99.90;;;;;;5055885;28;20248;-85
2020/12/05 14:02:28;;;;;;;36.70;29.45;;;8.10;99.90;;;;;;5055721;28;20214;-85
2020/12/05 14:04:55;;;;;;;34.00;28.95;;;8.10;99.90;;;;;;5063908;28;20211;-86
2020/12/05 14:07:22;;;;;;;30.80;27.50;;;8.20;99.90;;;;;;5040783;28;20207;-85
2020/12/05 14:09:48;;;;;;;32.83;27.40;;;8.30;99.90;;;;;;5041707;28;20614;-86
2020/12/05 14:12:15;;;;;;;33.67;28.05;;;8.30;99.90;;;;;;5041675;28;20227;-85
2020/12/05 14:14:41;;;;;;;34.55;28.50;;;8.30;99.90;;;;;;5042579;28;20226;-84
2020/12/05 14:17:08;;;;;;;34.05;28.38;;;8.20;99.90;;;;;;5042694;28;20231;-86
2020/12/05 14:19:34;;;;;;;32.00;25.95;;;8.00;99.90;;;;;;5043638;28;20215;-85
2020/12/05 14:22:03;;;;;;;36.75;32.30;;;8.00;99.90;;;;;;5041954;28;20446;-86
2020/12/05 14:24:32;;;;;;;38.30;33.80;;;7.90;99.90;;;;;;5044157;28;20211;-86
2020/12/05 14:26:59;;;;;;;32.20;26.23;;;8.00;99.90;;;;;;5042626;28;20227;-86
2020/12/05 14:29:25;;;;;;;30.88;27.58;;;8.00;99.90;;;;;;5043058;28;20269;-85
2020/12/05 14:31:52;;;;;;;28.10;25.20;;;7.80;99.90;;;;;;5044992;28;20663;-87
2020/12/05 14:34:19;;;;;;;34.78;30.08;;;7.80;99.90;;;;;;5047098;28;20238;-86
2020/12/05 14:36:46;;;;;;;33.97;29.17;;;7.80;99.90;;;;;;5070097;28;20241;-85
2020/12/05 14:39:13;;;;;;;38.30;27.77;;;7.70;99.90;;;;;;5068613;28;20214;-88
2020/12/05 14:41:41;;;;;;;30.30;25.85;;;7.70;99.90;;;;;;5060801;28;20206;-86
2020/12/05 14:44:07;;;;;;;29.35;25.45;;;7.70;99.90;;;;;;5061623;28;20237;-86
2020/12/05 14:46:34;;;;;;;31.50;27.85;;;7.60;99.90;;;;;;5062721;28;20218;-85
2020/12/05 14:49:03;;;;;;;35.65;26.35;;;7.60;99.90;;;;;;5063788;28;20211;-85
2020/12/05 14:51:29;;;;;;;30.48;26.48;;;7.60;99.90;;;;;;5066180;28;20200;-87
2020/12/05 14:53:56;;;;;;;33.70;25.58;;;7.60;99.90;;;;;;5065678;28;20226;-86
2020/12/05 14:56:24;;;;;;;28.17;25.38;;;7.50;99.90;;;;;;5066380;28;20210;-86
2020/12/05 14:58:51;;;;;;;27.10;23.67;;;7.40;99.90;;;;;;5066155;28;20228;-86
2020/12/05 15:01:23;;;;;;;26.73;24.02;;;7.50;99.90;;;;;;5069282;28;20280;-86
2020/12/05 15:03:50;;;;;;;29.90;25.13;;;7.50;99.90;;;;;;5070471;28;20241;-89
2020/12/05 15:06:17;;;;;;;25.90;23.10;;;7.50;99.90;;;;;;5065785;28;20527;-85
2020/12/05 15:08:44;;;;;;;27.48;24.67;;;7.50;99.90;;;;;;5066150;28;20225;-87
2020/12/05 15:11:11;;;;;;;30.42;25.42;;;7.50;99.90;;;;;;5068529;28;20210;-87
2020/12/05 15:13:39;;;;;;;32.28;28.05;;;7.50;99.90;;;;;;5070950;28;20229;-92
2020/12/05 15:16:05;;;;;;;29.45;25.23;;;7.60;99.90;;;;;;5079672;28;20204;-91
2020/12/05 15:18:32;;;;;;;30.17;26.23;;;7.40;99.90;;;;;;5079443;28;20209;-91
2020/12/05 15:21:01;;;;;;;30.00;26.70;;;7.40;99.90;;;;;;5079021;28;20180;-91
2020/12/05 15:23:29;;;;;;;33.50;29.00;;;7.40;99.90;;;;;;5078368;28;20273;-91
2020/12/05 15:25:57;;;;;;;27.50;23.15;;;7.30;99.90;;;;;;5075142;28;20283;-86
2020/12/05 15:28:24;;;;;;;36.90;28.65;;;7.20;99.90;;;;;;5064439;28;20189;-88
2020/12/05 15:30:52;;;;;;;34.70;30.08;;;7.20;99.90;;;;;;5065431;28;20220;-85
2020/12/05 15:33:22;;;;;;;36.25;30.10;;;7.10;99.90;;;;;;5058700;28;20259;-85
2020/12/05 15:36:00;;;;;;;40.50;32.13;;;7.10;99.90;;;;;;5046272;28;20231;-89